sensor_id;sensor_type;location;lat;lon;timestamp;pressure;altitude;pressure_sealevel;temperature;humidity
37368;BME280;23240;43.210;27.910;2023-01-19T00:00:04;100472.84;;;14.84;100.00
37368;BME280;23240;43.210;27.910;2023-01-19T00:02:30;100480.06;;;14.75;100.00
37368;BME280;23240;43.210;27.910;2023-01-19T00:04:56;100470.97;;;14.76;100.00
37368;BME280;23240;43.210;27.910;2023-01-19T00:07:23;100484.75;;;14.73;100.00
37368;BME280;23240;43.210;27.910;2023-01-19T00:09:49;100476.84;;;14.72;100.00
37368;BME280;23240;43.210;27.910;2023-01-19T00:12:14;100470.25;;;14.66;100.00
37368;BME280;23240;43.210;27.910;2023-01-19T00:14:39;100481.63;;;14.60;100.00
37368;BME280;23240;43.210;27.910;2023-01-19T00:17:05;100472.69;;;14.59;100.00
37368;BME280;23240;43.210;27.910;2023-01-19T00:19:31;100476.09;;;14.61;100.00
37368;BME280;23240;43.210;27.910;2023-01-19T00:21:57;100475.75;;;14.64;100.00
37368;BME280;23240;43.210;27.910;2023-01-19T00:24:22;100470.59;;;14.71;100.00
37368;BME280;23240;43.210;27.910;2023-01-19T00:26:48;100469.22;;;14.67;100.00
37368;BME280;23240;43.210;27.910;2023-01-19T00:29:13;100476.78;;;14.63;100.00
37368;BME280;23240;43.210;27.910;2023-01-19T00:31:39;100472.22;;;14.64;100.00
37368;BME280;23240;43.210;27.910;2023-01-19T00:34:06;100464.63;;;14.59;100.00
37368;BME280;23240;43.210;27.910;2023-01-19T00:36:32;100475.88;;;14.55;100.00
37368;BME280;23240;43.210;27.910;2023-01-19T00:38:58;100487.03;;;14.60;100.00
37368;BME280;23240;43.210;27.910;2023-01-19T00:41:24;100482.34;;;14.62;100.00
37368;BME280;23240;43.210;27.910;2023-01-19T00:44:09;100494.44;;;14.58;100.00
37368;BME280;23240;43.210;27.910;2023-01-19T00:46:35;100478.25;;;14.58;100.00
37368;BME280;23240;43.210;27.910;2023-01-19T00:49:00;100484.03;;;14.63;100.00
37368;BME280;23240;43.210;27.910;2023-01-19T00:51:26;100481.88;;;14.67;100.00
37368;BME280;23240;43.210;27.910;2023-01-19T00:53:51;100483.06;;;14.72;100.00
37368;BME280;23240;43.210;27.910;2023-01-19T00:56:17;100474.91;;;14.64;100.00
37368;BME280;23240;43.210;27.910;2023-01-19T00:58:43;100465.63;;;14.58;100.00
37368;BME280;23240;43.210;27.910;2023-01-19T01:01:10;100454.66;;;14.60;100.00
37368;BME280;23240;43.210;27.910;2023-01-19T01:03:36;100459.97;;;14.70;100.00
37368;BME280;23240;43.210;27.910;2023-01-19T01:06:01;100448.03;;;14.72;100.00
37368;BME280;23240;43.210;27.910;2023-01-19T01:08:28;100457.16;;;14.79;100.00
37368;BME280;23240;43.210;27.910;2023-01-19T01:10:55;100457.69;;;14.83;100.00
37368;BME280;23240;43.210;27.910;2023-01-19T01:13:20;100451.75;;;14.79;100.00
37368;BME280;23240;43.210;27.910;2023-01-19T01:15:52;100447.06;;;14.81;100.00
37368;BME280;23240;43.210;27.910;2023-01-19T01:18:18;100428.38;;;14.80;100.00
37368;BME280;23240;43.210;27.910;2023-01-19T01:20:44;100432.88;;;14.79;100.00
37368;BME280;23240;43.210;27.910;2023-01-19T01:23:09;100422.63;;;14.83;100.00
37368;BME280;23240;43.210;27.910;2023-01-19T01:25:35;100408.13;;;14.84;100.00
37368;BME280;23240;43.210;27.910;2023-01-19T01:28:04;100407.63;;;14.80;100.00
37368;BME280;23240;43.210;27.910;2023-01-19T01:30:31;100402.91;;;14.82;100.00
37368;BME280;23240;43.210;27.910;2023-01-19T01:32:56;100406.34;;;14.93;100.00
37368;BME280;23240;43.210;27.910;2023-01-19T01:35:22;100407.41;;;15.00;100.00
37368;BME280;23240;43.210;27.910;2023-01-19T01:37:47;100411.06;;;14.99;100.00
37368;BME280;23240;43.210;27.910;2023-01-19T01:40:16;100411.72;;;14.93;100.00
37368;BME280;23240;43.210;27.910;2023-01-19T01:42:42;100415.97;;;14.95;100.00
37368;BME280;23240;43.210;27.910;2023-01-19T01:45:31;100407.66;;;14.88;100.00
37368;BME280;23240;43.210;27.910;2023-01-19T01:48:22;100412.09;;;14.98;100.00
37368;BME280;23240;43.210;27.910;2023-01-19T01:50:57;100408.03;;;14.94;100.00
37368;BME280;23240;43.210;27.910;2023-01-19T01:53:44;100409.75;;;14.95;100.00
37368;BME280;23240;43.210;27.910;2023-01-19T01:56:14;100417.47;;;14.98;100.00
37368;BME280;23240;43.210;27.910;2023-01-19T01:58:42;100427.78;;;15.02;100.00
37368;BME280;23240;43.210;27.910;2023-01-19T02:01:08;100417.53;;;15.06;100.00
37368;BME280;23240;43.210;27.910;2023-01-19T02:03:54;100423.22;;;15.03;100.00
37368;BME280;23240;43.210;27.910;2023-01-19T02:06:20;100429.34;;;15.05;100.00
37368;BME280;23240;43.210;27.910;2023-01-19T02:08:53;100429.47;;;15.03;100.00
37368;BME280;23240;43.210;27.910;2023-01-19T02:11:38;100413.28;;;15.03;100.00
37368;BME280;23240;43.210;27.910;2023-01-19T02:14:23;100437.06;;;15.00;100.00
37368;BME280;23240;43.210;27.910;2023-01-19T02:16:49;100417.47;;;14.98;100.00
37368;BME280;23240;43.210;27.910;2023-01-19T02:19:29;100434.88;;;15.03;100.00
37368;BME280;23240;43.210;27.910;2023-01-19T02:22:03;100440.25;;;15.03;100.00
37368;BME280;23240;43.210;27.910;2023-01-19T02:24:32;100432.16;;;15.03;100.00
37368;BME280;23240;43.210;27.910;2023-01-19T02:26:58;100437.75;;;15.02;100.00
37368;BME280;23240;43.210;27.910;2023-01-19T02:29:25;100430.13;;;14.97;100.00
37368;BME280;23240;43.210;27.910;2023-01-19T02:31:51;100436.91;;;15.01;100.00
37368;BME280;23240;43.210;27.910;2023-01-19T02:34:19;100435.22;;;15.00;100.00
37368;BME280;23240;43.210;27.910;2023-01-19T02:36:52;100430.50;;;15.02;100.00
37368;BME280;23240;43.210;27.910;2023-01-19T02:39:22;100419.81;;;14.93;100.00
37368;BME280;23240;43.210;27.910;2023-01-19T02:41:52;100431.63;;;14.91;100.00
37368;BME280;23240;43.210;27.910;2023-01-19T02:44:21;100439.06;;;14.98;100.00
37368;BME280;23240;43.210;27.910;2023-01-19T02:46:47;100440.72;;;14.90;100.00
37368;BME280;23240;43.210;27.910;2023-01-19T02:49:13;100452.84;;;14.86;100.00
37368;BME280;23240;43.210;27.910;2023-01-19T02:51:42;100461.47;;;14.90;100.00
37368;BME280;23240;43.210;27.910;2023-01-19T02:56:49;100453.19;;;14.91;100.00
37368;BME280;23240;43.210;27.910;2023-01-19T03:04:27;100462.44;;;14.89;100.00
37368;BME280;23240;43.210;27.910;2023-01-19T03:09:41;100466.03;;;14.98;100.00
37368;BME280;23240;43.210;27.910;2023-01-19T03:14:47;100472.25;;;14.90;100.00
37368;BME280;23240;43.210;27.910;2023-01-19T03:17:15;100474.28;;;14.96;100.00
37368;BME280;23240;43.210;27.910;2023-01-19T03:19:45;100476.31;;;14.94;100.00
37368;BME280;23240;43.210;27.910;2023-01-19T03:22:18;100484.25;;;14.96;100.00
37368;BME280;23240;43.210;27.910;2023-01-19T03:24:47;100489.16;;;15.00;100.00
37368;BME280;23240;43.210;27.910;2023-01-19T03:27:20;100483.53;;;14.94;100.00
37368;BME280;23240;43.210;27.910;2023-01-19T03:29:55;100477.16;;;14.95;100.00
37368;BME280;23240;43.210;27.910;2023-01-19T03:32:27;100487.59;;;14.89;100.00
37368;BME280;23240;43.210;27.910;2023-01-19T03:34:57;100488.63;;;14.97;100.00
37368;BME280;23240;43.210;27.910;2023-01-19T03:37:24;100488.94;;;14.94;100.00
37368;BME280;23240;43.210;27.910;2023-01-19T03:39:51;100490.66;;;14.95;100.00
37368;BME280;23240;43.210;27.910;2023-01-19T03:42:17;100499.41;;;14.97;100.00
37368;BME280;23240;43.210;27.910;2023-01-19T03:44:44;100499.41;;;14.97;100.00
37368;BME280;23240;43.210;27.910;2023-01-19T03:47:12;100491.00;;;15.00;100.00
37368;BME280;23240;43.210;27.910;2023-01-19T03:49:40;100495.19;;;14.94;100.00
37368;BME280;23240;43.210;27.910;2023-01-19T03:52:07;100482.69;;;14.93;100.00
37368;BME280;23240;43.210;27.910;2023-01-19T03:54:32;100486.88;;;14.87;100.00
37368;BME280;23240;43.210;27.910;2023-01-19T03:56:58;100487.72;;;14.88;100.00
37368;BME280;23240;43.210;27.910;2023-01-19T03:59:24;100490.41;;;14.88;100.00
37368;BME280;23240;43.210;27.910;2023-01-19T04:01:49;100499.72;;;14.94;100.00
37368;BME280;23240;43.210;27.910;2023-01-19T04:04:15;100493.34;;;14.95;100.00
37368;BME280;23240;43.210;27.910;2023-01-19T04:06:41;100490.94;;;14.91;100.00
37368;BME280;23240;43.210;27.910;2023-01-19T04:09:07;100496.34;;;14.91;100.00
37368;BME280;23240;43.210;27.910;2023-01-19T04:11:33;100489.41;;;14.89;100.00
37368;BME280;23240;43.210;27.910;2023-01-19T04:13:58;100494.06;;;14.79;100.00
37368;BME280;23240;43.210;27.910;2023-01-19T04:16:24;100507.78;;;14.85;100.00
37368;BME280;23240;43.210;27.910;2023-01-19T04:18:49;100508.16;;;14.90;100.00
37368;BME280;23240;43.210;27.910;2023-01-19T04:21:17;100509.78;;;14.83;100.00
37368;BME280;23240;43.210;27.910;2023-01-19T04:23:45;100497.13;;;14.84;100.00
37368;BME280;23240;43.210;27.910;2023-01-19T04:26:10;100509.81;;;14.91;100.00
37368;BME280;23240;43.210;27.910;2023-01-19T04:28:36;100513.69;;;14.89;100.00
37368;BME280;23240;43.210;27.910;2023-01-19T04:31:03;100515.06;;;14.93;100.00
37368;BME280;23240;43.210;27.910;2023-01-19T04:33:29;100510.31;;;14.87;100.00
37368;BME280;23240;43.210;27.910;2023-01-19T04:35:54;100518.22;;;14.88;100.00
37368;BME280;23240;43.210;27.910;2023-01-19T04:38:21;100520.41;;;14.85;100.00
37368;BME280;23240;43.210;27.910;2023-01-19T04:40:51;100528.13;;;14.80;100.00
37368;BME280;23240;43.210;27.910;2023-01-19T04:43:20;100528.50;;;14.85;100.00
37368;BME280;23240;43.210;27.910;2023-01-19T04:45:46;100537.06;;;14.80;100.00
37368;BME280;23240;43.210;27.910;2023-01-19T04:48:12;100545.91;;;14.90;100.00
37368;BME280;23240;43.210;27.910;2023-01-19T04:50:38;100547.41;;;14.93;100.00
37368;BME280;23240;43.210;27.910;2023-01-19T04:53:04;100546.91;;;14.89;100.00
37368;BME280;23240;43.210;27.910;2023-01-19T04:55:29;100559.00;;;14.85;100.00
37368;BME280;23240;43.210;27.910;2023-01-19T04:57:55;100561.72;;;14.85;100.00
37368;BME280;23240;43.210;27.910;2023-01-19T05:00:21;100563.41;;;14.86;100.00
37368;BME280;23240;43.210;27.910;2023-01-19T05:02:47;100575.56;;;14.90;100.00
37368;BME280;23240;43.210;27.910;2023-01-19T05:05:13;100570.81;;;14.84;100.00
37368;BME280;23240;43.210;27.910;2023-01-19T05:07:39;100580.41;;;14.87;100.00
37368;BME280;23240;43.210;27.910;2023-01-19T05:10:05;100571.00;;;14.91;100.00
37368;BME280;23240;43.210;27.910;2023-01-19T05:12:32;100568.16;;;14.93;100.00
37368;BME280;23240;43.210;27.910;2023-01-19T05:14:57;100565.09;;;14.87;100.00
37368;BME280;23240;43.210;27.910;2023-01-19T05:17:23;100566.88;;;14.79;100.00
37368;BME280;23240;43.210;27.910;2023-01-19T05:19:49;100562.31;;;14.79;100.00
37368;BME280;23240;43.210;27.910;2023-01-19T05:22:14;100555.78;;;14.82;100.00
37368;BME280;23240;43.210;27.910;2023-01-19T05:24:40;100558.31;;;14.83;100.00
37368;BME280;23240;43.210;27.910;2023-01-19T05:27:06;100563.88;;;14.82;100.00
37368;BME280;23240;43.210;27.910;2023-01-19T05:29:31;100576.19;;;14.84;100.00
37368;BME280;23240;43.210;27.910;2023-01-19T05:31:57;100568.31;;;14.91;100.00
37368;BME280;23240;43.210;27.910;2023-01-19T05:34:23;100565.09;;;14.87;100.00
37368;BME280;23240;43.210;27.910;2023-01-19T05:36:48;100568.31;;;14.91;100.00
37368;BME280;23240;43.210;27.910;2023-01-19T05:39:14;100576.34;;;14.83;100.00
37368;BME280;23240;43.210;27.910;2023-01-19T05:41:40;100577.34;;;14.82;100.00
37368;BME280;23240;43.210;27.910;2023-01-19T05:44:06;100578.91;;;14.84;100.00
37368;BME280;23240;43.210;27.910;2023-01-19T05:46:33;100593.34;;;14.83;100.00
37368;BME280;23240;43.210;27.910;2023-01-19T05:48:59;100593.34;;;14.83;100.00
37368;BME280;23240;43.210;27.910;2023-01-19T05:51:28;100599.94;;;14.81;100.00
37368;BME280;23240;43.210;27.910;2023-01-19T05:54:00;100604.91;;;14.94;100.00
37368;BME280;23240;43.210;27.910;2023-01-19T05:56:25;100605.69;;;14.86;100.00
37368;BME280;23240;43.210;27.910;2023-01-19T05:58:51;100597.13;;;14.90;100.00
37368;BME280;23240;43.210;27.910;2023-01-19T06:01:16;100618.56;;;14.92;100.00
37368;BME280;23240;43.210;27.910;2023-01-19T06:03:42;100617.41;;;14.95;100.00
37368;BME280;23240;43.210;27.910;2023-01-19T06:06:07;100630.50;;;14.89;100.00
37368;BME280;23240;43.210;27.910;2023-01-19T06:08:33;100631.94;;;15.02;100.00
37368;BME280;23240;43.210;27.910;2023-01-19T06:10:58;100631.63;;;15.05;100.00
37368;BME280;23240;43.210;27.910;2023-01-19T06:13:24;100651.84;;;15.01;100.00
37368;BME280;23240;43.210;27.910;2023-01-19T06:15:58;100655.22;;;15.03;100.00
37368;BME280;23240;43.210;27.910;2023-01-19T06:18:24;100658.91;;;15.02;100.00
37368;BME280;23240;43.210;27.910;2023-01-19T06:20:51;100660.31;;;15.06;100.00
37368;BME280;23240;43.210;27.910;2023-01-19T06:23:16;100657.44;;;15.07;100.00
37368;BME280;23240;43.210;27.910;2023-01-19T06:25:42;100662.22;;;15.13;100.00
37368;BME280;23240;43.210;27.910;2023-01-19T06:28:07;100666.16;;;15.19;100.00
37368;BME280;23240;43.210;27.910;2023-01-19T06:30:33;100666.53;;;15.24;100.00
37368;BME280;23240;43.210;27.910;2023-01-19T06:32:58;100666.91;;;15.29;100.00
37368;BME280;23240;43.210;27.910;2023-01-19T06:35:24;100664.03;;;15.31;100.00
37368;BME280;23240;43.210;27.910;2023-01-19T06:37:51;100673.69;;;15.33;100.00
37368;BME280;23240;43.210;27.910;2023-01-19T06:40:17;100674.53;;;15.34;100.00
37368;BME280;23240;43.210;27.910;2023-01-19T06:42:42;100671.34;;;15.38;100.00
37368;BME280;23240;43.210;27.910;2023-01-19T06:45:08;100673.78;;;15.50;100.00
37368;BME280;23240;43.210;27.910;2023-01-19T06:47:34;100676.09;;;15.45;100.00
37368;BME280;23240;43.210;27.910;2023-01-19T06:50:00;100682.88;;;15.49;100.00
37368;BME280;23240;43.210;27.910;2023-01-19T06:52:26;100675.00;;;15.55;100.00
37368;BME280;23240;43.210;27.910;2023-01-19T06:54:52;100678.22;;;15.59;100.00
37368;BME280;23240;43.210;27.910;2023-01-19T06:57:18;100672.06;;;15.66;100.00
37368;BME280;23240;43.210;27.910;2023-01-19T06:59:43;100673.66;;;15.59;100.00
37368;BME280;23240;43.210;27.910;2023-01-19T07:02:09;100656.84;;;15.65;100.00
37368;BME280;23240;43.210;27.910;2023-01-19T07:04:42;100668.66;;;15.64;100.00
37368;BME280;23240;43.210;27.910;2023-01-19T07:07:08;100673.59;;;15.69;100.00
37368;BME280;23240;43.210;27.910;2023-01-19T07:09:33;100673.59;;;15.69;100.00
37368;BME280;23240;43.210;27.910;2023-01-19T07:11:58;100679.59;;;15.63;100.00
37368;BME280;23240;43.210;27.910;2023-01-19T07:14:24;100677.91;;;15.62;100.00
37368;BME280;23240;43.210;27.910;2023-01-19T07:16:55;100678.22;;;15.59;100.00
37368;BME280;23240;43.210;27.910;2023-01-19T07:19:20;100671.44;;;15.55;100.00
37368;BME280;23240;43.210;27.910;2023-01-19T07:21:46;100666.34;;;15.52;100.00
37368;BME280;23240;43.210;27.910;2023-01-19T07:24:11;100657.28;;;15.53;100.00
37368;BME280;23240;43.210;27.910;2023-01-19T07:26:36;100660.28;;;15.50;100.00
37368;BME280;23240;43.210;27.910;2023-01-19T07:29:02;100659.97;;;15.53;100.00
37368;BME280;23240;43.210;27.910;2023-01-19T07:31:28;100658.25;;;15.52;100.00
37368;BME280;23240;43.210;27.910;2023-01-19T07:33:53;100661.19;;;15.58;100.00
37368;BME280;23240;43.210;27.910;2023-01-19T07:36:18;100672.53;;;15.62;100.00
37368;BME280;23240;43.210;27.910;2023-01-19T07:38:44;100669.25;;;15.76;100.00
37368;BME280;23240;43.210;27.910;2023-01-19T07:41:09;100672.34;;;15.89;100.00
37368;BME280;23240;43.210;27.910;2023-01-19T07:43:35;100674.06;;;15.99;100.00
37368;BME280;23240;43.210;27.910;2023-01-19T07:46:02;100686.44;;;16.01;100.00
37368;BME280;23240;43.210;27.910;2023-01-19T07:48:28;100679.03;;;16.11;100.00
37368;BME280;23240;43.210;27.910;2023-01-19T07:51:01;100679.88;;;16.12;100.00
37368;BME280;23240;43.210;27.910;2023-01-19T07:53:30;100685.69;;;16.25;100.00
37368;BME280;23240;43.210;27.910;2023-01-19T07:55:56;100690.13;;;16.34;100.00
37368;BME280;23240;43.210;27.910;2023-01-19T07:58:25;100694.84;;;16.40;100.00
37368;BME280;23240;43.210;27.910;2023-01-19T08:00:51;100692.72;;;16.60;100.00
37368;BME280;23240;43.210;27.910;2023-01-19T08:03:16;100700.38;;;16.81;100.00
37368;BME280;23240;43.210;27.910;2023-01-19T08:05:43;100690.94;;;16.85;100.00
37368;BME280;23240;43.210;27.910;2023-01-19T08:08:09;100700.06;;;16.84;100.00
37368;BME280;23240;43.210;27.910;2023-01-19T08:10:37;100700.41;;;16.89;100.00
37368;BME280;23240;43.210;27.910;2023-01-19T08:13:02;100714.63;;;17.00;100.00
37368;BME280;23240;43.210;27.910;2023-01-19T08:15:28;100704.28;;;16.95;100.00
37368;BME280;23240;43.210;27.910;2023-01-19T08:18:03;100715.97;;;16.95;100.00
37368;BME280;23240;43.210;27.910;2023-01-19T08:20:34;100710.53;;;16.95;100.00
37368;BME280;23240;43.210;27.910;2023-01-19T08:22:59;100708.38;;;16.99;100.00
37368;BME280;23240;43.210;27.910;2023-01-19T08:25:37;100719.00;;;17.01;100.00
37368;BME280;23240;43.210;27.910;2023-01-19T08:28:05;100722.88;;;16.90;100.00
37368;BME280;23240;43.210;27.910;2023-01-19T08:30:31;100721.19;;;16.81;100.00
37368;BME280;23240;43.210;27.910;2023-01-19T08:32:57;100721.25;;;16.63;100.00
37368;BME280;23240;43.210;27.910;2023-01-19T08:35:32;100717.22;;;16.67;100.00
37368;BME280;23240;43.210;27.910;2023-01-19T08:37:58;100720.41;;;16.62;100.00
37368;BME280;23240;43.210;27.910;2023-01-19T08:40:29;100717.75;;;16.70;100.00
37368;BME280;23240;43.210;27.910;2023-01-19T08:43:03;100719.16;;;16.75;100.00
37368;BME280;23240;43.210;27.910;2023-01-19T08:45:31;100726.75;;;16.87;100.00
37368;BME280;23240;43.210;27.910;2023-01-19T08:47:57;100723.41;;;16.93;100.00
37368;BME280;23240;43.210;27.910;2023-01-19T08:50:27;100718.84;;;17.10;100.00
37368;BME280;23240;43.210;27.910;2023-01-19T08:53:02;100698.06;;;17.19;100.00
37368;BME280;23240;43.210;27.910;2023-01-19T08:55:28;100704.13;;;17.21;100.00
37368;BME280;23240;43.210;27.910;2023-01-19T08:57:55;100695.00;;;17.22;100.00
37368;BME280;23240;43.210;27.910;2023-01-19T09:00:22;100698.72;;;17.21;100.00
37368;BME280;23240;43.210;27.910;2023-01-19T09:02:49;100692.63;;;17.19;100.00
37368;BME280;23240;43.210;27.910;2023-01-19T09:05:15;100686.19;;;17.20;100.00
37368;BME280;23240;43.210;27.910;2023-01-19T09:07:42;100686.72;;;17.24;100.00
37368;BME280;23240;43.210;27.910;2023-01-19T09:10:10;100686.53;;;17.33;100.00
37368;BME280;23240;43.210;27.910;2023-01-19T09:12:35;100671.31;;;17.32;100.00
37368;BME280;23240;43.210;27.910;2023-01-19T09:15:01;100669.59;;;17.39;100.00
37368;BME280;23240;43.210;27.910;2023-01-19T09:17:26;100665.22;;;17.38;100.00
37368;BME280;23240;43.210;27.910;2023-01-19T09:19:52;100666.75;;;17.33;100.00
37368;BME280;23240;43.210;27.910;2023-01-19T09:22:17;100654.06;;;17.33;100.00
37368;BME280;23240;43.210;27.910;2023-01-19T09:24:43;100656.44;;;17.36;100.00
37368;BME280;23240;43.210;27.910;2023-01-19T09:27:08;100646.59;;;17.35;100.00
37368;BME280;23240;43.210;27.910;2023-01-19T09:29:34;100647.09;;;17.39;100.00
37368;BME280;23240;43.210;27.910;2023-01-19T09:32:01;100650.97;;;17.44;100.00
37368;BME280;23240;43.210;27.910;2023-01-19T09:34:26;100642.50;;;17.56;100.00
37368;BME280;23240;43.210;27.910;2023-01-19T09:36:52;100637.38;;;17.69;100.00
37368;BME280;23240;43.210;27.910;2023-01-19T09:39:17;100638.88;;;17.88;100.00
37368;BME280;23240;43.210;27.910;2023-01-19T09:41:53;100638.97;;;18.03;100.00
37368;BME280;23240;43.210;27.910;2023-01-19T09:44:30;100647.22;;;18.17;100.00
37368;BME280;23240;43.210;27.910;2023-01-19T09:46:56;100639.38;;;18.22;100.00
37368;BME280;23240;43.210;27.910;2023-01-19T09:49:30;100637.28;;;18.10;100.00
37368;BME280;23240;43.210;27.910;2023-01-19T09:51:57;100630.53;;;17.97;100.00
37368;BME280;23240;43.210;27.910;2023-01-19T09:54:28;100633.78;;;17.93;100.00
37368;BME280;23240;43.210;27.910;2023-01-19T09:56:55;100624.66;;;17.94;100.00
37368;BME280;23240;43.210;27.910;2023-01-19T09:59:25;100625.13;;;17.97;100.00
37368;BME280;23240;43.210;27.910;2023-01-19T10:04:41;100617.56;;;17.85;100.00
37368;BME280;23240;43.210;27.910;2023-01-19T10:10:20;100608.94;;;18.12;97.36
37368;BME280;23240;43.210;27.910;2023-01-19T10:18:45;100585.44;;;18.36;90.92
37368;BME280;23240;43.210;27.910;2023-01-19T10:24:06;100590.13;;;18.42;88.25
37368;BME280;23240;43.210;27.910;2023-01-19T10:26:41;100582.66;;;18.44;88.09
37368;BME280;23240;43.210;27.910;2023-01-19T10:31:51;100590.63;;;18.45;88.28
37368;BME280;23240;43.210;27.910;2023-01-19T10:34:18;100586.75;;;18.40;88.08
37368;BME280;23240;43.210;27.910;2023-01-19T10:36:46;100595.44;;;18.35;87.41
37368;BME280;23240;43.210;27.910;2023-01-19T10:39:15;100590.00;;;18.35;86.69
37368;BME280;23240;43.210;27.910;2023-01-19T10:41:50;100600.31;;;18.40;87.55
37368;BME280;23240;43.210;27.910;2023-01-19T10:44:27;100601.88;;;18.34;86.03
37368;BME280;23240;43.210;27.910;2023-01-19T10:46:54;100597.13;;;18.36;85.64
37368;BME280;23240;43.210;27.910;2023-01-19T10:49:36;100596.03;;;18.45;85.34
37368;BME280;23240;43.210;27.910;2023-01-19T10:52:05;100601.78;;;18.50;84.88
37368;BME280;23240;43.210;27.910;2023-01-19T10:54:33;100598.25;;;18.42;82.36
37368;BME280;23240;43.210;27.910;2023-01-19T10:57:03;100589.22;;;18.27;83.08
37368;BME280;23240;43.210;27.910;2023-01-19T10:59:30;100580.78;;;18.21;83.39
37368;BME280;23240;43.210;27.910;2023-01-19T11:02:18;100575.19;;;18.23;82.50
37368;BME280;23240;43.210;27.910;2023-01-19T11:04:46;100568.78;;;18.16;82.81
37368;BME280;23240;43.210;27.910;2023-01-19T11:07:14;100567.09;;;18.15;81.71
37368;BME280;23240;43.210;27.910;2023-01-19T11:09:40;100564.56;;;18.13;81.98
37368;BME280;23240;43.210;27.910;2023-01-19T11:12:15;100566.56;;;18.19;82.66
37368;BME280;23240;43.210;27.910;2023-01-19T11:14:41;100566.06;;;18.16;83.07
37368;BME280;23240;43.210;27.910;2023-01-19T11:17:23;100565.41;;;18.14;84.19
37368;BME280;23240;43.210;27.910;2023-01-19T11:19:58;100566.72;;;18.18;85.19
37368;BME280;23240;43.210;27.910;2023-01-19T11:22:30;100563.34;;;18.16;84.83
37368;BME280;23240;43.210;27.910;2023-01-19T11:25:02;100563.06;;;18.11;84.95
37368;BME280;23240;43.210;27.910;2023-01-19T11:27:31;100556.97;;;18.09;85.50
37368;BME280;23240;43.210;27.910;2023-01-19T11:30:20;100563.91;;;18.11;85.70
37368;BME280;23240;43.210;27.910;2023-01-19T11:32:48;100572.53;;;18.15;86.22
37368;BME280;23240;43.210;27.910;2023-01-19T11:40:37;100553.69;;;18.44;83.12
37368;BME280;23240;43.210;27.910;2023-01-19T11:43:03;100563.78;;;18.50;83.18
37368;BME280;23240;43.210;27.910;2023-01-19T11:45:31;100556.88;;;18.71;82.50
37368;BME280;23240;43.210;27.910;2023-01-19T11:47:58;100548.16;;;18.98;80.24
37368;BME280;23240;43.210;27.910;2023-01-19T11:50:47;100562.50;;;19.22;77.13
37368;BME280;23240;43.210;27.910;2023-01-19T11:53:17;100550.25;;;19.26;75.60
37368;BME280;23240;43.210;27.910;2023-01-19T11:55:58;100549.78;;;19.22;75.12
37368;BME280;23240;43.210;27.910;2023-01-19T11:58:27;100540.88;;;19.14;74.12
37368;BME280;23240;43.210;27.910;2023-01-19T12:01:02;100542.00;;;19.19;74.32
37368;BME280;23240;43.210;27.910;2023-01-19T12:03:33;100540.59;;;19.38;73.43
37368;BME280;23240;43.210;27.910;2023-01-19T12:06:24;100539.38;;;19.56;72.52
37368;BME280;23240;43.210;27.910;2023-01-19T12:08:54;100531.88;;;19.58;71.40
37368;BME280;23240;43.210;27.910;2023-01-19T12:11:25;100519.47;;;19.63;69.18
37368;BME280;23240;43.210;27.910;2023-01-19T12:13:54;100519.16;;;19.73;68.99
37368;BME280;23240;43.210;27.910;2023-01-19T12:16:22;100511.28;;;19.78;68.88
37368;BME280;23240;43.210;27.910;2023-01-19T12:18:58;100497.56;;;19.86;68.77
37368;BME280;23240;43.210;27.910;2023-01-19T12:21:24;100513.19;;;19.99;68.59
37368;BME280;23240;43.210;27.910;2023-01-19T12:24:13;100509.38;;;20.15;68.31
37368;BME280;23240;43.210;27.910;2023-01-19T12:26:51;100504.44;;;20.25;67.40
37368;BME280;23240;43.210;27.910;2023-01-19T12:29:20;100504.34;;;20.12;65.95
37368;BME280;23240;43.210;27.910;2023-01-19T12:34:47;100522.16;;;19.78;65.71
37368;BME280;23240;43.210;27.910;2023-01-19T12:37:41;100515.00;;;19.77;65.37
37368;BME280;23240;43.210;27.910;2023-01-19T12:40:17;100516.91;;;19.62;65.74
37368;BME280;23240;43.210;27.910;2023-01-19T12:42:50;100522.13;;;19.48;65.56
37368;BME280;23240;43.210;27.910;2023-01-19T12:45:22;100520.94;;;19.36;65.56
37368;BME280;23240;43.210;27.910;2023-01-19T12:47:53;100526.16;;;19.38;65.78
37368;BME280;23240;43.210;27.910;2023-01-19T12:50:21;100528.44;;;19.34;65.97
37368;BME280;23240;43.210;27.910;2023-01-19T12:52:55;100530.56;;;19.24;66.91
37368;BME280;23240;43.210;27.910;2023-01-19T12:58:06;100528.06;;;19.37;66.89
37368;BME280;23240;43.210;27.910;2023-01-19T13:00:36;100552.69;;;19.36;66.76
37368;BME280;23240;43.210;27.910;2023-01-19T13:13:31;100534.91;;;18.81;67.97
37368;BME280;23240;43.210;27.910;2023-01-19T13:18:54;100540.09;;;18.67;69.02
37368;BME280;23240;43.210;27.910;2023-01-19T13:21:41;100539.63;;;18.64;69.21
37368;BME280;23240;43.210;27.910;2023-01-19T13:26:39;100538.84;;;18.55;70.10
37368;BME280;23240;43.210;27.910;2023-01-19T13:29:13;100524.94;;;18.58;70.38
37368;BME280;23240;43.210;27.910;2023-01-19T13:31:41;100533.25;;;18.57;70.13
37368;BME280;23240;43.210;27.910;2023-01-19T13:34:14;100531.53;;;18.56;69.80
37368;BME280;23240;43.210;27.910;2023-01-19T13:36:45;100544.47;;;18.54;69.90